sensor_id;sensor_type;location;lat;lon;timestamp;temperature;humidity
58153;DHT22;43967;51.634;5.566;2022-09-11T00:46:40;22.40;65.70
58153;DHT22;43967;51.634;5.566;2022-09-11T00:51:43;22.60;66.70
58153;DHT22;43967;51.634;5.566;2022-09-11T00:56:46;22.70;66.50
58153;DHT22;43967;51.634;5.566;2022-09-11T01:01:48;22.80;66.80
58153;DHT22;43967;51.634;5.566;2022-09-11T01:06:56;22.80;66.80
58153;DHT22;43967;51.634;5.566;2022-09-11T01:27:53;23.00;67.00
58153;DHT22;43967;51.634;5.566;2022-09-11T01:33:13;23.00;67.00
58153;DHT22;43967;51.634;5.566;2022-09-11T01:43:53;22.90;66.80
58153;DHT22;43967;51.634;5.566;2022-09-11T01:49:09;22.90;66.80
58153;DHT22;43967;51.634;5.566;2022-09-11T01:54:15;22.90;66.80
58153;DHT22;43967;51.634;5.566;2022-09-11T01:59:21;22.90;66.70
58153;DHT22;43967;51.634;5.566;2022-09-11T02:04:30;22.90;66.70
58153;DHT22;43967;51.634;5.566;2022-09-11T02:09:40;22.90;66.70
58153;DHT22;43967;51.634;5.566;2022-09-11T02:14:48;22.90;66.70
58153;DHT22;43967;51.634;5.566;2022-09-11T02:19:52;22.90;66.60
58153;DHT22;43967;51.634;5.566;2022-09-11T02:24:56;22.90;66.60
58153;DHT22;43967;51.634;5.566;2022-09-11T02:29:58;22.90;66.50
58153;DHT22;43967;51.634;5.566;2022-09-11T02:35:04;22.90;66.50
58153;DHT22;43967;51.634;5.566;2022-09-11T03:01:51;22.90;66.30
58153;DHT22;43967;51.634;5.566;2022-09-11T03:06:56;22.90;66.40
58153;DHT22;43967;51.634;5.566;2022-09-11T03:11:59;22.90;66.30
58153;DHT22;43967;51.634;5.566;2022-09-11T03:17:01;22.90;66.20
58153;DHT22;43967;51.634;5.566;2022-09-11T03:22:02;22.90;66.20
58153;DHT22;43967;51.634;5.566;2022-09-11T03:27:03;22.80;66.10
58153;DHT22;43967;51.634;5.566;2022-09-11T03:32:05;22.80;66.10
58153;DHT22;43967;51.634;5.566;2022-09-11T03:37:08;22.80;66.00
58153;DHT22;43967;51.634;5.566;2022-09-11T03:47:28;22.80;65.90
58153;DHT22;43967;51.634;5.566;2022-09-11T03:52:29;22.80;65.90
58153;DHT22;43967;51.634;5.566;2022-09-11T03:57:37;22.80;65.90
58153;DHT22;43967;51.634;5.566;2022-09-11T04:02:39;22.80;65.90
58153;DHT22;43967;51.634;5.566;2022-09-11T04:07:41;22.80;65.90
58153;DHT22;43967;51.634;5.566;2022-09-11T04:12:44;22.80;65.90
58153;DHT22;43967;51.634;5.566;2022-09-11T04:17:46;22.80;65.90
58153;DHT22;43967;51.634;5.566;2022-09-11T04:22:47;22.80;65.90
58153;DHT22;43967;51.634;5.566;2022-09-11T04:27:48;22.80;65.80
58153;DHT22;43967;51.634;5.566;2022-09-11T04:32:50;22.80;65.80
58153;DHT22;43967;51.634;5.566;2022-09-11T04:37:52;22.80;65.80
58153;DHT22;43967;51.634;5.566;2022-09-11T04:42:54;22.80;65.70
58153;DHT22;43967;51.634;5.566;2022-09-11T04:47:56;22.80;65.70
58153;DHT22;43967;51.634;5.566;2022-09-11T04:52:57;22.80;65.60
58153;DHT22;43967;51.634;5.566;2022-09-11T04:58:00;22.70;65.60
58153;DHT22;43967;51.634;5.566;2022-09-11T05:03:01;22.80;65.70
58153;DHT22;43967;51.634;5.566;2022-09-11T05:08:04;22.80;65.60
58153;DHT22;43967;51.634;5.566;2022-09-11T05:13:07;22.70;65.50
58153;DHT22;43967;51.634;5.566;2022-09-11T05:18:09;22.70;65.50
58153;DHT22;43967;51.634;5.566;2022-09-11T05:23:11;22.80;65.50
58153;DHT22;43967;51.634;5.566;2022-09-11T05:28:12;22.70;65.40
58153;DHT22;43967;51.634;5.566;2022-09-11T05:33:15;22.70;66.10
58153;DHT22;43967;51.634;5.566;2022-09-11T05:38:21;22.70;65.40
58153;DHT22;43967;51.634;5.566;2022-09-11T05:43:24;22.70;65.40
58153;DHT22;43967;51.634;5.566;2022-09-11T05:48:28;22.70;65.40
58153;DHT22;43967;51.634;5.566;2022-09-11T05:53:30;22.70;65.40
58153;DHT22;43967;51.634;5.566;2022-09-11T05:58:33;22.70;65.30
58153;DHT22;43967;51.634;5.566;2022-09-11T06:03:35;22.70;65.30
58153;DHT22;43967;51.634;5.566;2022-09-11T06:08:38;22.70;65.30
58153;DHT22;43967;51.634;5.566;2022-09-11T06:13:41;22.70;65.30
58153;DHT22;43967;51.634;5.566;2022-09-11T06:18:43;22.70;65.30
58153;DHT22;43967;51.634;5.566;2022-09-11T06:23:50;22.70;65.20
58153;DHT22;43967;51.634;5.566;2022-09-11T06:28:53;22.70;65.20
58153;DHT22;43967;51.634;5.566;2022-09-11T06:33:57;22.70;65.10
58153;DHT22;43967;51.634;5.566;2022-09-11T06:38:59;22.70;65.10
58153;DHT22;43967;51.634;5.566;2022-09-11T06:44:02;22.50;63.10
58153;DHT22;43967;51.634;5.566;2022-09-11T06:49:05;22.20;63.10
58153;DHT22;43967;51.634;5.566;2022-09-11T06:54:06;22.10;63.20
58153;DHT22;43967;51.634;5.566;2022-09-11T06:59:10;22.00;64.10
58153;DHT22;43967;51.634;5.566;2022-09-11T07:04:11;22.00;64.80
58153;DHT22;43967;51.634;5.566;2022-09-11T07:09:12;22.00;67.90
58153;DHT22;43967;51.634;5.566;2022-09-11T07:14:18;21.90;67.20
58153;DHT22;43967;51.634;5.566;2022-09-11T07:19:20;21.90;65.70
58153;DHT22;43967;51.634;5.566;2022-09-11T07:34:56;21.80;65.90
58153;DHT22;43967;51.634;5.566;2022-09-11T07:39:57;21.80;66.10
58153;DHT22;43967;51.634;5.566;2022-09-11T07:45:03;21.80;66.40
58153;DHT22;43967;51.634;5.566;2022-09-11T07:55:24;21.80;66.60
58153;DHT22;43967;51.634;5.566;2022-09-11T08:00:27;21.80;66.70
58153;DHT22;43967;51.634;5.566;2022-09-11T08:05:38;21.80;66.60
58153;DHT22;43967;51.634;5.566;2022-09-11T08:10:40;21.90;66.90
58153;DHT22;43967;51.634;5.566;2022-09-11T08:15:50;21.90;66.90
58153;DHT22;43967;51.634;5.566;2022-09-11T08:21:08;22.00;67.00
58153;DHT22;43967;51.634;5.566;2022-09-11T08:26:13;22.00;67.00
58153;DHT22;43967;51.634;5.566;2022-09-11T08:31:18;21.90;67.00
58153;DHT22;43967;51.634;5.566;2022-09-11T08:36:20;21.90;67.10
58153;DHT22;43967;51.634;5.566;2022-09-11T08:46:43;21.80;67.20
58153;DHT22;43967;51.634;5.566;2022-09-11T08:51:46;21.90;67.40
58153;DHT22;43967;51.634;5.566;2022-09-11T08:56:49;21.90;67.70
58153;DHT22;43967;51.634;5.566;2022-09-11T09:02:14;21.90;67.80
58153;DHT22;43967;51.634;5.566;2022-09-11T09:18:14;22.10;67.20
58153;DHT22;43967;51.634;5.566;2022-09-11T09:23:22;21.70;68.20
58153;DHT22;43967;51.634;5.566;2022-09-11T09:28:41;21.40;69.90
58153;DHT22;43967;51.634;5.566;2022-09-11T09:34:03;21.50;70.40
58153;DHT22;43967;51.634;5.566;2022-09-11T09:39:23;21.60;69.80
58153;DHT22;43967;51.634;5.566;2022-09-11T09:44:45;21.40;69.60
58153;DHT22;43967;51.634;5.566;2022-09-11T09:49:50;21.80;69.10
58153;DHT22;43967;51.634;5.566;2022-09-11T09:54:59;21.90;68.30
58153;DHT22;43967;51.634;5.566;2022-09-11T10:00:21;21.90;68.00
58153;DHT22;43967;51.634;5.566;2022-09-11T10:05:32;21.90;67.80
58153;DHT22;43967;51.634;5.566;2022-09-11T10:10:35;21.90;67.80
58153;DHT22;43967;51.634;5.566;2022-09-11T10:15:37;22.00;67.70
58153;DHT22;43967;51.634;5.566;2022-09-11T10:20:39;22.10;67.60
58153;DHT22;43967;51.634;5.566;2022-09-11T10:25:49;22.20;67.50
58153;DHT22;43967;51.634;5.566;2022-09-11T10:35:53;22.30;67.70
58153;DHT22;43967;51.634;5.566;2022-09-11T10:41:27;22.30;67.20
58153;DHT22;43967;51.634;5.566;2022-09-11T10:46:35;22.40;66.80
58153;DHT22;43967;51.634;5.566;2022-09-11T10:51:41;22.50;66.90
58153;DHT22;43967;51.634;5.566;2022-09-11T10:57:16;22.40;65.40
58153;DHT22;43967;51.634;5.566;2022-09-11T11:02:32;22.20;66.30
58153;DHT22;43967;51.634;5.566;2022-09-11T11:07:56;22.40;66.70
58153;DHT22;43967;51.634;5.566;2022-09-11T11:24:03;22.10;67.40
58153;DHT22;43967;51.634;5.566;2022-09-11T11:29:58;22.10;68.10
58153;DHT22;43967;51.634;5.566;2022-09-11T11:34:39;22.10;66.70
58153;DHT22;43967;51.634;5.566;2022-09-11T11:45:20;22.50;67.10
58153;DHT22;43967;51.634;5.566;2022-09-11T11:50:33;22.60;66.00
58153;DHT22;43967;51.634;5.566;2022-09-11T11:56:05;22.70;65.90
58153;DHT22;43967;51.634;5.566;2022-09-11T12:01:15;22.80;65.90
58153;DHT22;43967;51.634;5.566;2022-09-11T12:06:18;22.70;65.00
58153;DHT22;43967;51.634;5.566;2022-09-11T12:11:30;22.90;65.60
58153;DHT22;43967;51.634;5.566;2022-09-11T12:32:43;22.70;64.10
58153;DHT22;43967;51.634;5.566;2022-09-11T12:37:53;22.50;63.30
58153;DHT22;43967;51.634;5.566;2022-09-11T12:48:08;22.70;63.90
58153;DHT22;43967;51.634;5.566;2022-09-11T12:53:17;22.70;64.30
58153;DHT22;43967;51.634;5.566;2022-09-11T12:58:33;22.70;64.60
58153;DHT22;43967;51.634;5.566;2022-09-11T13:03:36;22.70;65.20
58153;DHT22;43967;51.634;5.566;2022-09-11T13:08:56;22.70;64.50
58153;DHT22;43967;51.634;5.566;2022-09-11T13:13:58;22.80;64.80
58153;DHT22;43967;51.634;5.566;2022-09-11T13:19:10;22.70;64.30
58153;DHT22;43967;51.634;5.566;2022-09-11T13:24:32;22.60;64.30
58153;DHT22;43967;51.634;5.566;2022-09-11T13:29:35;22.60;65.30
58153;DHT22;43967;51.634;5.566;2022-09-11T14:38:33;22.70;61.50
58153;DHT22;43967;51.634;5.566;2022-09-11T14:43:36;22.70;61.80
58153;DHT22;43967;51.634;5.566;2022-09-11T15:26:00;22.70;60.30
58153;DHT22;43967;51.634;5.566;2022-09-11T17:03:05;21.90;66.70
58153;DHT22;43967;51.634;5.566;2022-09-11T17:30:38;21.30;69.60
58153;DHT22;43967;51.634;5.566;2022-09-11T17:35:40;21.30;69.80
58153;DHT22;43967;51.634;5.566;2022-09-11T17:40:41;21.20;69.40
58153;DHT22;43967;51.634;5.566;2022-09-11T17:51:11;21.00;71.00
58153;DHT22;43967;51.634;5.566;2022-09-11T20:18:06;22.40;66.70
58153;DHT22;43967;51.634;5.566;2022-09-11T20:23:08;22.40;66.50
58153;DHT22;43967;51.634;5.566;2022-09-11T20:28:09;22.40;66.30
58153;DHT22;43967;51.634;5.566;2022-09-11T20:33:11;22.50;66.10
58153;DHT22;43967;51.634;5.566;2022-09-11T20:38:12;22.50;66.00
58153;DHT22;43967;51.634;5.566;2022-09-11T20:43:13;22.50;65.70
58153;DHT22;43967;51.634;5.566;2022-09-11T20:48:14;22.50;65.70
58153;DHT22;43967;51.634;5.566;2022-09-11T20:53:15;22.60;65.60
58153;DHT22;43967;51.634;5.566;2022-09-11T20:58:16;22.60;65.60
58153;DHT22;43967;51.634;5.566;2022-09-11T21:03:17;22.60;65.50
58153;DHT22;43967;51.634;5.566;2022-09-11T21:08:19;22.60;65.40
58153;DHT22;43967;51.634;5.566;2022-09-11T21:13:20;22.60;65.30
58153;DHT22;43967;51.634;5.566;2022-09-11T21:18:21;22.60;65.20
58153;DHT22;43967;51.634;5.566;2022-09-11T21:23:22;22.60;65.20
58153;DHT22;43967;51.634;5.566;2022-09-11T21:28:23;22.70;65.20
58153;DHT22;43967;51.634;5.566;2022-09-11T21:33:25;22.60;65.10
58153;DHT22;43967;51.634;5.566;2022-09-11T21:38:27;22.70;65.10
58153;DHT22;43967;51.634;5.566;2022-09-11T21:43:28;22.70;65.10
58153;DHT22;43967;51.634;5.566;2022-09-11T21:48:40;22.70;65.10
58153;DHT22;43967;51.634;5.566;2022-09-11T21:53:43;22.70;65.00
58153;DHT22;43967;51.634;5.566;2022-09-11T21:58:46;22.70;65.00
58153;DHT22;43967;51.634;5.566;2022-09-11T22:03:52;22.70;65.00
58153;DHT22;43967;51.634;5.566;2022-09-11T22:08:56;22.70;64.90
58153;DHT22;43967;51.634;5.566;2022-09-11T22:13:57;22.70;64.90
58153;DHT22;43967;51.634;5.566;2022-09-11T22:18:58;22.70;64.90
58153;DHT22;43967;51.634;5.566;2022-09-11T22:23:59;22.70;64.90
58153;DHT22;43967;51.634;5.566;2022-09-11T22:29:00;22.70;64.90
58153;DHT22;43967;51.634;5.566;2022-09-11T22:34:01;22.70;64.80
58153;DHT22;43967;51.634;5.566;2022-09-11T22:39:02;22.70;64.80
58153;DHT22;43967;51.634;5.566;2022-09-11T22:44:04;22.70;64.80
58153;DHT22;43967;51.634;5.566;2022-09-11T22:49:05;22.70;64.80
58153;DHT22;43967;51.634;5.566;2022-09-11T22:54:06;22.70;64.70
58153;DHT22;43967;51.634;5.566;2022-09-11T22:59:07;22.70;64.70
58153;DHT22;43967;51.634;5.566;2022-09-11T23:04:08;22.70;64.70
58153;DHT22;43967;51.634;5.566;2022-09-11T23:09:11;22.70;64.60
58153;DHT22;43967;51.634;5.566;2022-09-11T23:14:12;22.60;64.60
58153;DHT22;43967;51.634;5.566;2022-09-11T23:19:14;22.70;64.60
58153;DHT22;43967;51.634;5.566;2022-09-11T23:24:15;22.60;64.50
58153;DHT22;43967;51.634;5.566;2022-09-11T23:29:16;22.60;64.50
58153;DHT22;43967;51.634;5.566;2022-09-11T23:34:17;22.60;64.50
58153;DHT22;43967;51.634;5.566;2022-09-11T23:39:18;22.60;64.50
58153;DHT22;43967;51.634;5.566;2022-09-11T23:44:19;22.60;64.40
58153;DHT22;43967;51.634;5.566;2022-09-11T23:49:20;22.60;64.40
58153;DHT22;43967;51.634;5.566;2022-09-11T23:54:21;22.60;64.40
58153;DHT22;43967;51.634;5.566;2022-09-11T23:59:22;22.60;64.40
